createdAt,value
2018-07-15T00:01:06.430Z,18.80
2018-07-15T00:03:35.930Z,18.76
2018-07-15T00:06:05.481Z,18.68
2018-07-15T00:08:35.069Z,18.70
2018-07-15T00:11:04.601Z,18.70
2018-07-15T00:13:34.055Z,18.67
2018-07-15T00:16:03.721Z,18.69
2018-07-15T00:18:33.155Z,18.69
2018-07-15T00:21:02.923Z,18.69
2018-07-15T00:23:32.550Z,18.68
2018-07-15T00:26:01.943Z,18.69
2018-07-15T00:28:31.371Z,18.62
2018-07-15T00:31:00.859Z,18.59
2018-07-15T00:33:30.326Z,18.58
2018-07-15T00:35:59.756Z,18.52
2018-07-15T00:38:29.126Z,18.55
2018-07-15T00:40:58.550Z,18.55
2018-07-15T00:43:27.962Z,18.52
2018-07-15T00:45:57.371Z,18.49
2018-07-15T00:48:26.861Z,18.49
2018-07-15T00:50:56.261Z,18.50
2018-07-15T00:53:25.699Z,18.54
2018-07-15T00:55:55.155Z,18.48
2018-07-15T00:58:24.578Z,18.50
2018-07-15T01:00:59.237Z,18.53
2018-07-15T01:03:28.614Z,18.49
2018-07-15T01:05:58.053Z,18.47
2018-07-15T01:08:27.458Z,18.44
2018-07-15T01:10:56.933Z,18.47
2018-07-15T01:13:26.418Z,18.45
2018-07-15T01:15:55.827Z,18.43
2018-07-15T01:18:25.462Z,18.44
2018-07-15T01:20:54.987Z,18.47
2018-07-15T01:23:24.469Z,18.41
2018-07-15T01:25:53.945Z,18.47
2018-07-15T01:28:23.333Z,18.52
2018-07-15T01:30:53.141Z,18.42
2018-07-15T01:33:22.553Z,18.31
2018-07-15T01:35:58.180Z,18.28
2018-07-15T01:38:27.612Z,18.34
2018-07-15T01:40:57.021Z,18.38
2018-07-15T01:43:26.426Z,18.34
2018-07-15T01:45:55.914Z,18.29
2018-07-15T01:48:25.329Z,18.32
2018-07-15T01:50:54.873Z,18.28
2018-07-15T01:53:24.337Z,18.22
2018-07-15T01:55:53.759Z,18.30
2018-07-15T01:58:23.282Z,18.30
2018-07-15T02:00:52.753Z,18.34
2018-07-15T02:03:22.148Z,18.36
2018-07-15T02:05:51.583Z,18.31
2018-07-15T02:08:21.066Z,18.30
2018-07-15T02:10:50.510Z,18.29
2018-07-15T02:13:19.961Z,18.33
2018-07-15T02:15:49.403Z,18.33
2018-07-15T02:18:18.837Z,18.33
2018-07-15T02:20:48.268Z,18.26
2018-07-15T02:23:17.679Z,18.30
2018-07-15T02:25:47.176Z,18.31
2018-07-15T02:28:16.579Z,18.31
2018-07-15T02:30:45.966Z,18.29
2018-07-15T02:33:15.429Z,18.25
2018-07-15T02:35:45.542Z,18.23
2018-07-15T02:38:14.918Z,18.22
2018-07-15T02:40:44.262Z,18.24
2018-07-15T02:43:13.635Z,18.21
2018-07-15T02:45:43.030Z,18.23
2018-07-15T02:48:12.441Z,18.24
2018-07-15T02:50:41.842Z,18.19
2018-07-15T02:53:11.239Z,18.17
2018-07-15T02:55:40.624Z,18.16
2018-07-15T02:58:10.055Z,18.16
2018-07-15T03:00:40.031Z,18.15
2018-07-15T03:03:09.484Z,18.09
2018-07-15T03:05:38.858Z,18.02
2018-07-15T03:08:08.331Z,18.01
2018-07-15T03:10:38.378Z,17.99
2018-07-15T03:13:07.924Z,17.99
2018-07-15T03:15:37.505Z,17.97
2018-07-15T03:18:06.947Z,17.99
2018-07-15T03:20:36.525Z,18.01
2018-07-15T03:23:06.515Z,18.01
2018-07-15T03:25:36.002Z,18.03
2018-07-15T03:28:05.555Z,18.02
2018-07-15T03:30:35.132Z,18.02
2018-07-15T03:33:04.632Z,18.00
2018-07-15T03:35:34.101Z,18.03
2018-07-15T03:38:03.545Z,18.05
2018-07-15T03:40:33.743Z,18.03
2018-07-15T03:43:03.212Z,18.02
2018-07-15T03:45:32.679Z,17.99
2018-07-15T03:48:02.816Z,17.99
2018-07-15T03:50:32.372Z,18.06
2018-07-15T03:53:01.851Z,18.10
2018-07-15T03:55:31.235Z,18.07
2018-07-15T03:58:00.693Z,17.92
2018-07-15T04:00:30.138Z,17.77
2018-07-15T04:02:59.563Z,17.73
2018-07-15T04:05:29.004Z,17.82
2018-07-15T04:07:58.404Z,17.84
2018-07-15T04:10:27.806Z,17.87
2018-07-15T04:12:57.314Z,17.87
2018-07-15T04:15:26.751Z,17.87
2018-07-15T04:18:01.492Z,17.91
2018-07-15T04:20:30.988Z,17.97
2018-07-15T04:23:00.915Z,18.00
2018-07-15T04:25:30.598Z,18.00
2018-07-15T04:27:59.938Z,17.88
2018-07-15T04:30:29.270Z,17.89
2018-07-15T04:32:58.615Z,17.87
2018-07-15T04:35:28.072Z,17.83
2018-07-15T04:37:57.584Z,17.92
2018-07-15T04:40:27.018Z,17.90
2018-07-15T04:42:56.471Z,17.88
2018-07-15T04:45:25.886Z,17.90
2018-07-15T04:47:55.300Z,17.84
2018-07-15T04:50:24.677Z,17.88
2018-07-15T04:52:54.276Z,17.96
2018-07-15T04:55:23.705Z,17.93
2018-07-15T04:57:53.123Z,17.94
2018-07-15T05:00:22.505Z,17.97
2018-07-15T05:02:52.106Z,18.10
2018-07-15T05:05:21.554Z,18.19
2018-07-15T05:07:50.926Z,18.18
2018-07-15T05:10:20.356Z,18.16
2018-07-15T05:12:49.782Z,18.21
2018-07-15T05:15:19.180Z,18.23
2018-07-15T05:17:48.623Z,18.30
2018-07-15T05:20:18.085Z,18.33
2018-07-15T05:22:47.434Z,18.42
2018-07-15T05:25:16.834Z,18.45
2018-07-15T05:27:46.325Z,18.47
2018-07-15T05:30:15.759Z,18.47
2018-07-15T05:32:45.195Z,18.50
2018-07-15T05:35:14.583Z,18.55
2018-07-15T05:37:43.995Z,18.51
2018-07-15T05:40:13.384Z,18.56
2018-07-15T05:42:42.954Z,18.61
2018-07-15T05:45:12.574Z,18.68
2018-07-15T05:47:41.978Z,18.65
2018-07-15T05:50:11.517Z,18.63
2018-07-15T05:52:40.941Z,18.72
2018-07-15T05:55:10.338Z,18.75
2018-07-15T05:57:39.934Z,18.83
2018-07-15T06:00:09.628Z,18.88
2018-07-15T06:02:39.208Z,18.88
2018-07-15T06:05:09.070Z,18.87
2018-07-15T06:07:38.436Z,18.96
2018-07-15T06:10:07.955Z,18.95
2018-07-15T06:12:37.448Z,19.05
2018-07-15T06:15:06.962Z,19.16
2018-07-15T06:17:36.420Z,19.18
2018-07-15T06:20:07.766Z,19.23
2018-07-15T06:22:37.220Z,19.30
2018-07-15T06:25:07.695Z,19.34
2018-07-15T06:27:37.527Z,19.39
2018-07-15T06:30:07.174Z,19.46
2018-07-15T06:32:36.635Z,19.57
2018-07-15T06:35:06.626Z,19.63
2018-07-15T06:37:36.332Z,19.73
2018-07-15T06:40:06.666Z,19.73
2018-07-15T06:42:36.285Z,19.82
2018-07-15T06:45:05.756Z,19.91
2018-07-15T06:47:35.707Z,19.95
2018-07-15T06:50:05.410Z,19.97
2018-07-15T06:52:35.022Z,20.09
2018-07-15T06:55:05.143Z,20.15
2018-07-15T06:57:35.557Z,20.22
2018-07-15T07:00:05.137Z,20.31
2018-07-15T07:02:34.753Z,20.37
2018-07-15T07:05:04.238Z,20.37
2018-07-15T07:07:33.485Z,20.46
2018-07-15T07:10:02.985Z,20.48
2018-07-15T07:12:32.418Z,20.59
2018-07-15T07:15:01.858Z,20.66
2018-07-15T07:17:31.259Z,20.77
2018-07-15T07:20:00.778Z,20.80
2018-07-15T07:22:30.147Z,20.88
2018-07-15T07:24:59.496Z,20.94
2018-07-15T07:27:28.846Z,20.89
2018-07-15T07:29:58.199Z,20.98
2018-07-15T07:32:27.607Z,20.98
2018-07-15T07:34:56.941Z,21.07
2018-07-15T07:37:26.341Z,21.22
2018-07-15T07:39:55.789Z,21.31
2018-07-15T07:42:25.446Z,21.32
2018-07-15T07:44:55.034Z,21.41
2018-07-15T07:47:24.425Z,21.52
2018-07-15T07:49:53.886Z,21.58
2018-07-15T07:52:23.374Z,21.64
2018-07-15T07:54:52.885Z,21.72
2018-07-15T07:57:22.239Z,21.74
2018-07-15T07:59:51.604Z,21.87
2018-07-15T08:02:21.060Z,21.89
2018-07-15T08:04:50.434Z,21.96
2018-07-15T08:07:19.823Z,22.13
2018-07-15T08:09:48.945Z,22.21
2018-07-15T08:12:18.554Z,22.30
2018-07-15T08:14:47.947Z,22.42
2018-07-15T08:17:17.326Z,22.42
2018-07-15T08:19:46.799Z,22.48
2018-07-15T08:22:16.392Z,22.61
2018-07-15T08:24:45.885Z,22.68
2018-07-15T08:27:15.263Z,22.80
2018-07-15T08:30:00.564Z,22.88
2018-07-15T08:32:30.037Z,23.00
2018-07-15T08:34:59.580Z,23.07
2018-07-15T08:37:29.263Z,23.13
2018-07-15T08:39:58.683Z,23.27
2018-07-15T08:42:28.065Z,23.31
2018-07-15T08:44:57.775Z,23.49
2018-07-15T08:47:27.189Z,23.55
2018-07-15T08:49:56.618Z,23.61
2018-07-15T08:52:26.224Z,23.73
2018-07-15T08:54:55.616Z,23.97
2018-07-15T08:57:25.012Z,23.99
2018-07-15T08:59:54.535Z,24.12
2018-07-15T09:02:24.832Z,24.28
2018-07-15T09:04:54.348Z,24.19
2018-07-15T09:07:23.851Z,24.02
2018-07-15T09:09:53.442Z,24.08
2018-07-15T09:12:22.983Z,24.17
2018-07-15T09:14:52.446Z,24.26
2018-07-15T09:17:21.947Z,24.37
2018-07-15T09:19:51.313Z,24.61
2018-07-15T09:22:20.801Z,24.60
2018-07-15T09:24:50.181Z,24.61
2018-07-15T09:27:19.615Z,24.58
2018-07-15T09:29:49.048Z,24.72
2018-07-15T09:32:18.417Z,24.74
2018-07-15T09:34:47.794Z,24.86
2018-07-15T09:37:17.105Z,24.97
2018-07-15T09:39:46.569Z,25.26
2018-07-15T09:42:16.003Z,25.35
2018-07-15T09:44:45.436Z,25.45
2018-07-15T09:47:15.057Z,25.58
2018-07-15T09:49:44.512Z,25.71
2018-07-15T09:52:13.864Z,25.83
2018-07-15T09:54:43.315Z,25.65
2018-07-15T09:57:12.688Z,25.51
2018-07-15T09:59:42.102Z,25.45
2018-07-15T10:02:11.495Z,25.37
2018-07-15T10:04:40.909Z,25.37
2018-07-15T10:07:11.018Z,25.49
2018-07-15T10:09:41.367Z,25.68
2018-07-15T10:12:10.824Z,25.91
2018-07-15T10:14:40.179Z,26.06
2018-07-15T10:17:09.599Z,26.23
2018-07-15T10:19:39.086Z,26.46
2018-07-15T10:22:08.565Z,26.54
2018-07-15T10:24:38.044Z,26.71
2018-07-15T10:27:07.678Z,26.86
2018-07-15T10:29:37.274Z,26.55
2018-07-15T10:32:07.068Z,26.16
2018-07-15T10:34:36.647Z,25.84
2018-07-15T10:37:06.214Z,25.71
2018-07-15T10:39:35.670Z,25.64
2018-07-15T10:42:05.243Z,25.56
2018-07-15T10:44:34.883Z,25.37
2018-07-15T10:47:04.768Z,25.29
2018-07-15T10:49:34.226Z,25.23
2018-07-15T10:52:03.668Z,25.33
2018-07-15T10:54:33.116Z,25.44
2018-07-15T10:57:02.612Z,25.61
2018-07-15T10:59:32.373Z,25.87
2018-07-15T11:02:01.706Z,26.15
2018-07-15T11:04:31.364Z,26.38
2018-07-15T11:07:00.818Z,26.54
2018-07-15T11:09:30.490Z,26.75
2018-07-15T11:11:59.999Z,26.79
2018-07-15T11:14:29.554Z,26.68
2018-07-15T11:16:59.097Z,26.41
2018-07-15T11:19:28.705Z,26.21
2018-07-15T11:21:58.315Z,26.06
2018-07-15T11:24:27.874Z,25.89
2018-07-15T11:26:57.373Z,25.78
2018-07-15T11:29:26.832Z,25.64
2018-07-15T11:31:56.335Z,25.55
2018-07-15T11:34:25.787Z,25.53
2018-07-15T11:36:55.584Z,25.54
2018-07-15T11:39:25.012Z,25.70
2018-07-15T11:41:55.633Z,25.90
2018-07-15T11:44:25.048Z,25.99
2018-07-15T11:46:55.401Z,26.13
2018-07-15T11:49:24.780Z,26.19
2018-07-15T11:51:54.173Z,26.29
2018-07-15T11:54:23.596Z,26.46
2018-07-15T11:56:55.579Z,26.61
2018-07-15T11:59:26.014Z,26.53
2018-07-15T12:01:56.795Z,26.38
2018-07-15T12:04:26.265Z,26.26
2018-07-15T12:06:55.811Z,26.24
2018-07-15T12:09:25.204Z,26.33
2018-07-15T12:11:54.813Z,26.48
2018-07-15T12:14:24.347Z,26.60
2018-07-15T12:16:53.755Z,26.80
2018-07-15T12:19:23.237Z,26.94
2018-07-15T12:21:52.752Z,27.10
2018-07-15T12:24:22.349Z,27.36
2018-07-15T12:26:51.725Z,27.35
2018-07-15T12:29:21.255Z,27.47
2018-07-15T12:31:50.788Z,27.56
2018-07-15T12:34:20.662Z,27.57
2018-07-15T12:36:50.093Z,27.61
2018-07-15T12:39:19.543Z,27.60
2018-07-15T12:41:49.079Z,27.58
2018-07-15T12:44:18.600Z,27.49
2018-07-15T12:46:48.023Z,27.40
2018-07-15T12:49:17.482Z,27.25
2018-07-15T12:51:47.500Z,26.96
2018-07-15T12:54:16.999Z,26.68
2018-07-15T12:56:46.462Z,26.58
2018-07-15T12:59:15.866Z,26.51
2018-07-15T13:01:45.369Z,26.59
2018-07-15T13:04:14.769Z,26.41
2018-07-15T13:06:44.213Z,26.18
2018-07-15T13:09:13.597Z,26.11
2018-07-15T13:11:42.986Z,26.05
2018-07-15T13:14:12.425Z,26.25
2018-07-15T13:16:41.807Z,26.41
2018-07-15T13:19:11.482Z,26.62
2018-07-15T13:21:41.898Z,26.71
2018-07-15T13:24:11.403Z,26.62
2018-07-15T13:26:40.785Z,26.46
2018-07-15T13:29:10.423Z,26.28
2018-07-15T13:31:40.897Z,26.17
2018-07-15T13:34:11.397Z,26.06
2018-07-15T13:36:40.836Z,25.91
2018-07-15T13:39:10.027Z,25.77
2018-07-15T13:41:39.651Z,25.72
2018-07-15T13:44:09.021Z,25.67
2018-07-15T13:46:38.416Z,25.55
2018-07-15T13:49:07.647Z,25.52
2018-07-15T13:51:37.309Z,25.41
2018-07-15T13:54:06.897Z,25.34
2018-07-15T13:56:36.399Z,25.28
2018-07-15T13:59:06.007Z,25.21
2018-07-15T14:01:35.513Z,25.16
2018-07-15T14:04:05.250Z,25.11
2018-07-15T14:06:34.773Z,25.10
2018-07-15T14:09:05.140Z,25.08
2018-07-15T14:11:34.711Z,25.07
2018-07-15T14:14:04.256Z,25.06
2018-07-15T14:16:33.705Z,25.03
2018-07-15T14:19:03.814Z,25.03
2018-07-15T14:21:33.449Z,25.01
2018-07-15T14:24:05.939Z,24.93
2018-07-15T14:26:35.572Z,24.83
2018-07-15T14:29:05.358Z,24.64
2018-07-15T14:31:34.997Z,24.02
2018-07-15T14:34:04.629Z,23.56
2018-07-15T14:36:34.197Z,23.36
2018-07-15T14:39:03.815Z,23.10
2018-07-15T14:41:33.502Z,22.85
2018-07-15T14:44:03.024Z,22.71
2018-07-15T14:46:32.633Z,22.64
2018-07-15T14:49:02.115Z,22.58
2018-07-15T14:51:32.136Z,22.44
2018-07-15T14:54:01.779Z,22.50
2018-07-15T14:56:31.231Z,22.34
2018-07-15T14:59:00.748Z,22.39
2018-07-15T15:01:30.190Z,22.34
2018-07-15T15:03:59.646Z,22.44
2018-07-15T15:06:29.120Z,22.37
2018-07-15T15:08:58.545Z,22.32
2018-07-15T15:11:28.198Z,22.21
2018-07-15T15:13:57.706Z,22.31
2018-07-15T15:16:27.114Z,22.50
2018-07-15T15:18:56.610Z,22.46
2018-07-15T15:21:26.067Z,22.30
2018-07-15T15:23:55.524Z,22.18
2018-07-15T15:26:25.014Z,22.11
2018-07-15T15:28:57.876Z,22.00
2018-07-15T15:31:27.325Z,21.95
2018-07-15T15:33:56.819Z,21.87
2018-07-15T15:36:26.415Z,21.86
2018-07-15T15:38:55.791Z,21.85
2018-07-15T15:41:25.218Z,21.76
2018-07-15T15:43:54.625Z,21.67
2018-07-15T15:46:25.130Z,21.75
2018-07-15T15:48:54.563Z,21.65
2018-07-15T15:51:23.966Z,21.63
2018-07-15T15:53:53.455Z,21.66
2018-07-15T15:56:22.898Z,21.79
2018-07-15T15:58:52.347Z,21.91
2018-07-15T16:01:21.808Z,21.87
2018-07-15T16:03:51.287Z,21.95
2018-07-15T16:06:20.710Z,22.04
2018-07-15T16:08:50.129Z,21.81
2018-07-15T16:11:19.613Z,21.58
2018-07-15T16:13:49.092Z,21.38
2018-07-15T16:16:18.515Z,21.43
2018-07-15T16:18:48.004Z,21.25
2018-07-15T16:21:17.596Z,21.14
2018-07-15T16:23:47.024Z,21.06
2018-07-15T16:26:16.749Z,21.06
2018-07-15T16:28:46.126Z,21.03
2018-07-15T16:31:15.526Z,21.16
2018-07-15T16:33:44.991Z,20.96
2018-07-15T16:36:14.420Z,20.86
2018-07-15T16:38:44.002Z,20.93
2018-07-15T16:41:13.392Z,20.91
2018-07-15T16:43:43.182Z,20.92
2018-07-15T16:46:12.647Z,20.87
2018-07-15T16:48:42.105Z,20.85
2018-07-15T16:51:11.520Z,20.97
2018-07-15T16:53:41.075Z,20.89
2018-07-15T16:56:10.584Z,20.87
2018-07-15T16:58:40.068Z,20.91
2018-07-15T17:01:09.521Z,20.89
2018-07-15T17:03:39.008Z,20.86
2018-07-15T17:06:08.593Z,20.84
2018-07-15T17:08:38.159Z,20.87
2018-07-15T17:11:08.100Z,20.89
2018-07-15T17:13:37.610Z,20.90
2018-07-15T17:16:07.448Z,20.89
2018-07-15T17:18:36.603Z,20.94
2018-07-15T17:21:06.470Z,20.98
2018-07-15T17:23:36.045Z,21.00
2018-07-15T17:26:06.101Z,20.89
2018-07-15T17:28:35.825Z,20.94
2018-07-15T17:31:05.438Z,20.99
2018-07-15T17:33:34.916Z,20.91
2018-07-15T17:36:04.515Z,20.85
2018-07-15T17:38:35.219Z,20.81
2018-07-15T17:41:05.328Z,20.79
2018-07-15T17:43:37.840Z,20.87
2018-07-15T17:46:08.505Z,20.81
2018-07-15T17:48:38.496Z,20.81
2018-07-15T17:51:08.092Z,20.73
2018-07-15T17:53:38.193Z,20.73
2018-07-15T17:56:07.717Z,20.80
2018-07-15T17:58:37.763Z,20.82
2018-07-15T18:01:07.463Z,20.87
2018-07-15T18:03:37.224Z,20.71
2018-07-15T18:06:07.560Z,20.84
2018-07-15T18:08:37.142Z,20.72
2018-07-15T18:11:06.659Z,20.74
2018-07-15T18:13:36.332Z,20.72
2018-07-15T18:16:06.435Z,20.69
2018-07-15T18:18:35.894Z,20.61
2018-07-15T18:21:05.427Z,20.65
2018-07-15T18:23:37.023Z,20.62
2018-07-15T18:26:06.960Z,20.59
2018-07-15T18:28:36.589Z,20.50
2018-07-15T18:31:06.152Z,20.48
2018-07-15T18:33:35.726Z,20.51
2018-07-15T18:36:05.409Z,20.41
2018-07-15T18:38:35.021Z,20.38
2018-07-15T18:41:04.570Z,20.27
2018-07-15T18:43:34.023Z,20.17
2018-07-15T18:46:03.740Z,20.23
2018-07-15T18:48:33.403Z,20.18
2018-07-15T18:51:03.015Z,20.23
2018-07-15T18:53:32.558Z,20.16
2018-07-15T18:56:02.110Z,20.28
2018-07-15T18:58:31.588Z,20.23
2018-07-15T19:01:01.188Z,20.23
2018-07-15T19:03:30.621Z,20.09
2018-07-15T19:05:59.962Z,20.15
2018-07-15T19:08:30.449Z,20.18
2018-07-15T19:11:00.010Z,20.12
2018-07-15T19:13:29.411Z,20.07
2018-07-15T19:15:59.002Z,20.04
2018-07-15T19:18:28.415Z,20.10
2018-07-15T19:20:58.134Z,20.07
2018-07-15T19:23:27.642Z,20.01
2018-07-15T19:25:57.290Z,20.04
2018-07-15T19:28:26.911Z,20.04
2018-07-15T19:30:56.368Z,20.03
2018-07-15T19:33:25.744Z,19.94
2018-07-15T19:35:55.342Z,19.92
2018-07-15T19:38:24.925Z,19.93
2018-07-15T19:40:55.463Z,19.95
2018-07-15T19:43:25.062Z,20.01
2018-07-15T19:45:54.490Z,20.08
2018-07-15T19:48:23.867Z,20.11
2018-07-15T19:50:53.333Z,20.11
2018-07-15T19:53:22.848Z,20.12
2018-07-15T19:55:52.315Z,20.05
2018-07-15T19:58:21.720Z,20.06
2018-07-15T20:00:51.242Z,20.01
2018-07-15T20:03:20.651Z,19.98
2018-07-15T20:05:52.170Z,20.00
2018-07-15T20:08:21.673Z,20.02
2018-07-15T20:10:51.107Z,20.02
2018-07-15T20:13:20.507Z,20.04
2018-07-15T20:15:50.044Z,19.95
2018-07-15T20:18:19.439Z,19.92
2018-07-15T20:20:49.003Z,19.91
2018-07-15T20:23:21.596Z,19.92
2018-07-15T20:25:51.366Z,19.92
2018-07-15T20:28:20.760Z,19.89
2018-07-15T20:30:50.130Z,19.93
2018-07-15T20:33:19.588Z,19.88
2018-07-15T20:35:49.004Z,19.88
2018-07-15T20:38:18.404Z,19.85
2018-07-15T20:40:47.817Z,19.81
2018-07-15T20:43:16.976Z,19.74
2018-07-15T20:45:46.532Z,19.70
2018-07-15T20:48:15.893Z,19.69
2018-07-15T20:50:45.287Z,19.67
2018-07-15T20:53:15.400Z,19.63
2018-07-15T20:55:45.201Z,19.58
2018-07-15T20:58:14.613Z,19.54
2018-07-15T21:00:44.183Z,19.51
2018-07-15T21:03:13.589Z,19.46
2018-07-15T21:05:43.005Z,19.42
2018-07-15T21:08:12.490Z,19.45
2018-07-15T21:10:41.936Z,19.39
2018-07-15T21:13:11.496Z,19.42
2018-07-15T21:15:40.879Z,19.39
2018-07-15T21:18:10.339Z,19.43
2018-07-15T21:20:39.749Z,19.36
2018-07-15T21:23:09.225Z,19.38
2018-07-15T21:25:38.692Z,19.33
2018-07-15T21:28:08.130Z,19.28
2018-07-15T21:30:37.918Z,19.30
2018-07-15T21:33:07.407Z,19.27
2018-07-15T21:35:36.937Z,19.25
2018-07-15T21:38:06.609Z,19.25
2018-07-15T21:40:35.945Z,19.26
2018-07-15T21:43:05.405Z,19.23
2018-07-15T21:45:34.817Z,19.21
2018-07-15T21:48:04.233Z,19.19
2018-07-15T21:50:33.737Z,19.19
2018-07-15T21:53:03.338Z,19.16
2018-07-15T21:55:32.712Z,19.17
2018-07-15T21:58:01.830Z,19.14
2018-07-15T22:00:31.333Z,19.12
2018-07-15T22:03:00.966Z,19.10
2018-07-15T22:05:30.355Z,19.05
2018-07-15T22:08:16.719Z,19.04
2018-07-15T22:10:47.270Z,19.08
2018-07-15T22:13:16.805Z,19.12
2018-07-15T22:15:46.496Z,19.08
2018-07-15T22:18:15.886Z,19.04
2018-07-15T22:20:45.268Z,19.04
2018-07-15T22:23:14.631Z,19.03
2018-07-15T22:25:44.010Z,19.02
2018-07-15T22:28:13.461Z,19.01
2018-07-15T22:30:43.177Z,18.97
2018-07-15T22:33:12.546Z,18.95
2018-07-15T22:35:41.965Z,18.95
2018-07-15T22:38:12.446Z,18.95
2018-07-15T22:40:41.793Z,18.95
2018-07-15T22:43:11.177Z,18.91
2018-07-15T22:45:40.554Z,18.90
2018-07-15T22:48:09.966Z,18.88
2018-07-15T22:50:39.345Z,18.85
2018-07-15T22:53:08.766Z,18.85
2018-07-15T22:55:38.137Z,18.84
2018-07-15T22:58:07.539Z,18.83
2018-07-15T23:00:36.951Z,18.84
2018-07-15T23:03:06.303Z,18.82
2018-07-15T23:05:54.679Z,18.78
2018-07-15T23:08:25.223Z,18.79
2018-07-15T23:10:54.722Z,18.79
2018-07-15T23:13:24.312Z,18.77
2018-07-15T23:15:53.728Z,18.73
2018-07-15T23:18:23.477Z,18.83
2018-07-15T23:20:52.951Z,18.83
2018-07-15T23:23:22.374Z,18.85
2018-07-15T23:25:51.879Z,18.88
2018-07-15T23:28:21.281Z,18.91
2018-07-15T23:30:50.765Z,18.87
2018-07-15T23:33:20.172Z,18.92
2018-07-15T23:35:49.549Z,18.94
2018-07-15T23:38:18.916Z,18.95
2018-07-15T23:40:48.301Z,18.86
2018-07-15T23:43:17.772Z,18.87
2018-07-15T23:45:47.201Z,18.84
2018-07-15T23:48:16.735Z,18.90
2018-07-15T23:50:46.468Z,18.98
2018-07-15T23:53:15.893Z,18.95
2018-07-15T23:55:45.252Z,18.90
2018-07-15T23:58:14.631Z,18.84
